GRZ502 Details

Departure: Juneau International Airport (PAJN)
Arrival: Ted Stevens Anchorage International Airport (PANC)
Route: CHLKT1 ALATY JOH WITTI4


Current Weather Information
PAJN 252253Z 24008KT 10SM CLR 10/02 A3008 RMK AO2 SLP185 T01000017
PANC 252253Z 34005KT 10SM FEW060 BKN200 07/01 A3022 RMK AO2 SLP235 T00720011